Time;durP1;ratioP1;P1;durP2;ratioP2;P2;SDS_P1;SDS_P2;PMS_P1;PMS_P2;Temp;Humidity;BMP_temperature;BMP_pressure;BME280_temperature;BME280_humidity;BME280_pressure;Samples;Min_cycle;Max_cycle;Signal;HPM_P1;HPM_P2
2022/04/03 00:00:41;;;;;;;7.43;3.15;;;2.50;92.10;;;;;;5067523;28;37269;-53
2022/04/03 00:03:09;;;;;;;6.05;2.38;;;2.60;92.00;;;;;;5066952;28;36022;-53
2022/04/03 00:05:38;;;;;;;6.38;3.17;;;2.60;92.10;;;;;;5067077;28;37331;-48
2022/04/03 00:08:06;;;;;;;7.88;2.88;;;2.70;92.30;;;;;;5067678;28;36508;-53
2022/04/03 00:10:36;;;;;;;5.88;2.67;;;2.70;92.20;;;;;;5067481;28;39733;-46
2022/04/03 00:13:03;;;;;;;7.15;2.80;;;2.70;92.10;;;;;;5067895;28;39181;-49
2022/04/03 00:15:30;;;;;;;6.03;2.45;;;2.80;92.30;;;;;;5067813;28;36877;-47
2022/04/03 00:17:58;;;;;;;5.93;2.80;;;2.80;92.30;;;;;;5066979;28;37022;-49
2022/04/03 00:20:25;;;;;;;5.78;2.15;;;2.70;92.30;;;;;;5068231;28;36210;-46
2022/04/03 00:22:52;;;;;;;6.55;2.15;;;2.90;92.20;;;;;;5067189;28;37771;-48
2022/04/03 00:25:20;;;;;;;5.70;2.83;;;3.20;92.60;;;;;;5067741;28;36218;-49
2022/04/03 00:27:49;;;;;;;5.18;2.08;;;2.90;92.60;;;;;;5066935;28;35328;-48
2022/04/03 00:30:17;;;;;;;5.68;2.13;;;2.90;92.60;;;;;;5067344;28;36367;-49
2022/04/03 00:32:44;;;;;;;8.80;1.90;;;3.00;92.80;;;;;;5065743;28;37522;-46
2022/04/03 00:35:11;;;;;;;4.97;1.95;;;2.90;92.80;;;;;;5067601;28;37050;-46
2022/04/03 00:37:39;;;;;;;5.43;2.22;;;2.90;92.80;;;;;;5067323;28;35256;-46
2022/04/03 00:40:07;;;;;;;4.55;1.88;;;2.90;92.70;;;;;;5066814;28;36846;-46
2022/04/03 00:42:35;;;;;;;5.00;1.70;;;2.90;92.80;;;;;;5067021;28;37300;-44
2022/04/03 00:45:05;;;;;;;5.80;2.67;;;2.90;92.70;;;;;;5065521;28;37462;-47
2022/04/03 00:47:33;;;;;;;5.40;2.30;;;2.90;92.60;;;;;;5067306;28;37933;-51
2022/04/03 00:50:01;;;;;;;4.90;2.30;;;2.90;92.60;;;;;;5066687;28;37540;-45
2022/04/03 00:52:29;;;;;;;6.70;2.28;;;2.90;92.70;;;;;;5068194;28;37694;-48
2022/04/03 00:54:56;;;;;;;7.90;2.60;;;2.80;92.60;;;;;;5066338;28;37158;-46
2022/04/03 00:57:25;;;;;;;5.82;1.92;;;2.80;92.50;;;;;;5067568;28;36716;-53
2022/04/03 00:59:54;;;;;;;6.63;2.92;;;2.80;92.50;;;;;;5069615;28;36929;-54
2022/04/03 01:02:23;;;;;;;7.53;2.97;;;2.80;92.40;;;;;;5070732;28;37860;-54
2022/04/03 01:04:50;;;;;;;5.13;2.17;;;2.70;92.60;;;;;;5070332;28;38023;-52
2022/04/03 01:07:18;;;;;;;5.38;2.42;;;2.70;92.40;;;;;;5070897;28;35394;-53
2022/04/03 01:09:46;;;;;;;6.38;2.50;;;2.70;92.40;;;;;;5070440;28;36303;-54
2022/04/03 01:12:13;;;;;;;3.85;1.90;;;2.70;92.50;;;;;;5070605;28;38270;-52
2022/04/03 01:14:42;;;;;;;6.70;2.00;;;2.60;92.40;;;;;;5070800;27;37947;-52
2022/04/03 01:17:13;;;;;;;7.43;2.10;;;2.60;92.60;;;;;;5070491;28;37326;-53
2022/04/03 01:19:42;;;;;;;5.82;1.98;;;2.60;92.70;;;;;;5069983;28;39102;-52
2022/04/03 01:22:10;;;;;;;4.75;2.05;;;2.60;92.80;;;;;;5070397;28;38254;-49
2022/04/03 01:24:42;;;;;;;4.70;1.98;;;2.60;92.80;;;;;;5070144;28;38511;-47
2022/04/03 01:27:11;;;;;;;8.30;2.30;;;2.60;92.90;;;;;;5070282;28;36914;-47
2022/04/03 01:29:38;;;;;;;5.00;1.95;;;2.60;92.90;;;;;;5070628;28;38152;-44
2022/04/03 01:32:07;;;;;;;7.32;2.05;;;2.50;93.00;;;;;;5070332;28;38660;-47
2022/04/03 01:34:35;;;;;;;5.30;2.10;;;2.50;93.00;;;;;;5069565;28;37184;-49
2022/04/03 01:37:02;;;;;;;5.93;2.22;;;2.50;93.10;;;;;;5070469;28;36519;-46
2022/04/03 01:39:29;;;;;;;5.70;2.10;;;2.50;93.20;;;;;;5070433;28;37057;-49
2022/04/03 01:41:57;;;;;;;4.57;2.17;;;2.50;93.30;;;;;;5069597;28;38641;-53
2022/04/03 01:44:26;;;;;;;4.00;1.92;;;2.50;93.50;;;;;;5070034;28;36141;-54
2022/04/03 01:46:53;;;;;;;5.43;2.33;;;2.50;93.70;;;;;;5069945;28;37036;-52
2022/04/03 01:49:20;;;;;;;4.97;2.20;;;2.50;93.80;;;;;;5070464;28;41198;-53
2022/04/03 01:51:48;;;;;;;5.13;2.10;;;2.50;94.00;;;;;;5069226;28;38411;-53
2022/04/03 01:54:15;;;;;;;7.32;2.60;;;2.50;94.00;;;;;;5069666;28;36000;-53
2022/04/03 01:56:44;;;;;;;7.70;2.13;;;2.50;94.10;;;;;;5068725;28;36372;-51
2022/04/03 01:59:11;;;;;;;3.42;1.67;;;2.50;94.20;;;;;;5068555;28;37602;-52
2022/04/03 02:01:40;;;;;;;7.25;2.22;;;2.50;94.40;;;;;;5068519;28;38899;-53
2022/04/03 02:04:08;;;;;;;5.07;1.95;;;2.60;94.50;;;;;;5068163;28;37369;-54
2022/04/03 02:06:35;;;;;;;5.88;1.83;;;2.60;94.50;;;;;;5068546;28;36968;-54
2022/04/03 02:09:04;;;;;;;5.85;2.03;;;2.60;94.70;;;;;;5067760;28;38942;-53
2022/04/03 02:11:31;;;;;;;11.30;6.38;;;2.70;94.90;;;;;;5068193;28;38750;-53
2022/04/03 02:13:59;;;;;;;11.43;3.72;;;2.80;94.80;;;;;;5067844;28;38134;-53
2022/04/03 02:16:26;;;;;;;24.70;12.98;;;2.80;94.70;;;;;;5069127;28;36215;-53
2022/04/03 02:18:55;;;;;;;18.10;9.93;;;2.90;94.80;;;;;;5068980;28;37640;-53
2022/04/03 02:21:22;;;;;;;10.68;4.38;;;2.90;94.90;;;;;;5068883;28;37199;-53
2022/04/03 02:23:51;;;;;;;9.57;3.17;;;2.90;94.80;;;;;;5068453;28;37413;-51
2022/04/03 02:26:19;;;;;;;12.38;5.03;;;3.00;94.80;;;;;;5068633;28;36671;-53
2022/04/03 02:28:46;;;;;;;16.08;8.02;;;3.00;95.00;;;;;;5068574;28;38668;-53
2022/04/03 02:31:15;;;;;;;12.07;5.82;;;3.00;95.10;;;;;;5069576;28;20057;-54
2022/04/03 02:33:42;;;;;;;7.38;3.22;;;3.10;95.00;;;;;;5068788;28;37428;-53
2022/04/03 02:36:11;;;;;;;7.82;3.15;;;3.10;95.10;;;;;;5068809;28;36754;-53
2022/04/03 02:38:38;;;;;;;9.18;3.83;;;3.20;95.20;;;;;;5069880;28;36915;-52
2022/04/03 02:41:05;;;;;;;9.82;2.92;;;3.20;95.00;;;;;;5069093;28;37763;-54
2022/04/03 02:43:33;;;;;;;8.48;3.47;;;3.20;95.00;;;;;;5069313;28;36062;-54
2022/04/03 02:46:00;;;;;;;6.32;3.05;;;3.30;95.10;;;;;;5068748;28;36566;-53
2022/04/03 02:48:27;;;;;;;8.10;3.50;;;3.30;95.00;;;;;;5068261;28;38401;-53
2022/04/03 02:50:55;;;;;;;5.93;2.28;;;3.30;95.10;;;;;;5069081;28;37641;-53
2022/04/03 02:53:23;;;;;;;9.05;3.25;;;3.30;95.00;;;;;;5068836;28;38206;-53
2022/04/03 02:55:51;;;;;;;6.18;2.30;;;3.40;95.00;;;;;;5067775;28;36171;-53
2022/04/03 02:58:18;;;;;;;5.63;2.17;;;3.30;95.10;;;;;;5068054;28;38755;-52
2022/04/03 03:00:46;;;;;;;5.72;1.83;;;3.30;95.30;;;;;;5069011;28;37383;-50
2022/04/03 03:03:14;;;;;;;6.70;2.22;;;3.30;95.30;;;;;;5067825;28;37523;-54
2022/04/03 03:05:42;;;;;;;11.23;4.93;;;3.30;95.60;;;;;;5069019;28;36499;-53
2022/04/03 03:08:09;;;;;;;6.75;1.92;;;3.30;95.70;;;;;;5067972;28;37561;-51
2022/04/03 03:10:38;;;;;;;4.93;1.35;;;3.30;95.80;;;;;;5068488;28;38129;-46
2022/04/03 03:13:05;;;;;;;2.75;1.25;;;3.20;95.90;;;;;;5068847;28;37180;-45
2022/04/03 03:15:33;;;;;;;3.05;1.10;;;3.30;96.20;;;;;;5068234;28;37834;-46
2022/04/03 03:18:00;;;;;;;6.60;1.50;;;3.30;96.40;;;;;;5068664;28;37474;-49
2022/04/03 03:20:27;;;;;;;3.45;1.30;;;3.40;96.60;;;;;;5068651;28;37695;-48
2022/04/03 03:22:55;;;;;;;3.45;1.35;;;3.40;96.50;;;;;;5067917;28;38293;-46
2022/04/03 03:25:22;;;;;;;5.13;1.10;;;3.40;96.70;;;;;;5067482;28;36542;-49
2022/04/03 03:27:51;;;;;;;6.60;2.38;;;3.50;96.90;;;;;;5067917;28;38945;-47
2022/04/03 03:30:18;;;;;;;5.43;1.52;;;3.50;96.90;;;;;;5068259;28;37966;-50
2022/04/03 03:32:45;;;;;;;7.50;2.50;;;3.50;97.00;;;;;;5066673;28;37892;-47
2022/04/03 03:35:13;;;;;;;5.75;2.25;;;3.50;97.20;;;;;;5068459;28;38145;-46
2022/04/03 03:37:41;;;;;;;3.53;1.65;;;3.50;97.30;;;;;;5067791;28;39095;-47
2022/04/03 03:40:11;;;;;;;4.03;1.40;;;3.50;97.30;;;;;;5068198;28;37644;-49
2022/04/03 03:42:40;;;;;;;4.18;1.27;;;3.50;97.30;;;;;;5068010;28;36330;-47
2022/04/03 03:45:10;;;;;;;3.97;1.33;;;3.50;97.20;;;;;;5067506;28;37253;-48
2022/04/03 03:47:38;;;;;;;5.75;1.60;;;3.40;97.20;;;;;;5067729;28;37071;-49
2022/04/03 03:50:06;;;;;;;5.13;1.52;;;3.50;97.30;;;;;;5067470;28;40027;-47
2022/04/03 03:52:33;;;;;;;4.93;1.65;;;3.40;97.20;;;;;;5067424;28;37473;-50
2022/04/03 03:55:00;;;;;;;3.15;1.10;;;3.30;97.10;;;;;;5068391;28;37280;-44
2022/04/03 03:57:28;;;;;;;4.95;1.38;;;3.30;97.40;;;;;;5068277;28;38636;-48
2022/04/03 03:59:55;;;;;;;3.92;1.63;;;3.30;97.30;;;;;;5068585;28;37626;-49
2022/04/03 04:02:24;;;;;;;7.30;1.98;;;3.20;97.30;;;;;;5067656;28;40099;-50
2022/04/03 04:04:51;;;;;;;4.32;1.60;;;3.20;97.50;;;;;;5067987;28;36482;-47
2022/04/03 04:07:19;;;;;;;4.25;1.92;;;2.60;97.30;;;;;;5068395;28;37518;-47
2022/04/03 04:09:46;;;;;;;6.35;2.08;;;3.20;97.50;;;;;;5068177;28;36387;-46
2022/04/03 04:12:13;;;;;;;4.82;1.75;;;3.20;97.50;;;;;;5066939;28;38324;-45
2022/04/03 04:14:41;;;;;;;7.43;2.97;;;3.20;97.50;;;;;;5067717;28;36551;-49
2022/04/03 04:17:09;;;;;;;6.28;2.97;;;3.20;97.40;;;;;;5067034;28;36209;-49
2022/04/03 04:19:38;;;;;;;4.63;1.95;;;3.20;97.50;;;;;;5066857;28;37006;-47
2022/04/03 04:22:05;;;;;;;7.82;2.22;;;3.10;97.30;;;;;;5067656;28;36144;-49
2022/04/03 04:24:33;;;;;;;7.13;1.75;;;3.10;97.20;;;;;;5067371;28;36701;-50
2022/04/03 04:27:00;;;;;;;4.93;1.50;;;3.10;97.20;;;;;;5067627;28;37768;-50
2022/04/03 04:29:27;;;;;;;5.97;2.55;;;3.10;97.30;;;;;;5067636;28;36604;-48
2022/04/03 04:31:55;;;;;;;3.50;1.40;;;3.00;97.40;;;;;;5067492;28;37756;-49
2022/04/03 04:34:22;;;;;;;3.40;1.17;;;3.10;97.40;;;;;;5065379;28;37323;-48
2022/04/03 04:36:51;;;;;;;5.07;1.65;;;3.00;97.30;;;;;;5067201;28;37684;-46
2022/04/03 04:39:18;;;;;;;5.85;1.15;;;2.90;97.30;;;;;;5067143;28;37580;-47
2022/04/03 04:41:45;;;;;;;3.85;1.25;;;2.90;97.20;;;;;;5068136;28;37252;-48
2022/04/03 04:44:12;;;;;;;4.43;1.42;;;2.80;97.20;;;;;;5067236;28;36981;-49
2022/04/03 04:46:40;;;;;;;5.15;1.70;;;2.80;97.30;;;;;;5067575;28;37580;-48
2022/04/03 04:49:07;;;;;;;5.88;1.60;;;2.80;97.10;;;;;;5066457;28;37745;-49
2022/04/03 04:51:34;;;;;;;3.72;1.50;;;2.70;97.10;;;;;;5066315;28;37174;-48
2022/04/03 04:54:03;;;;;;;4.50;1.55;;;2.70;97.20;;;;;;5067222;28;37175;-49
2022/04/03 04:56:31;;;;;;;5.72;1.95;;;2.70;97.10;;;;;;5065945;28;37833;-49
2022/04/03 04:58:58;;;;;;;9.63;2.83;;;2.70;97.10;;;;;;5066692;28;37763;-50
2022/04/03 05:01:26;;;;;;;5.57;2.10;;;2.60;97.00;;;;;;5066859;28;36153;-48
2022/04/03 05:03:53;;;;;;;4.43;2.03;;;2.70;97.00;;;;;;5067367;28;36496;-47
2022/04/03 05:06:23;;;;;;;4.75;1.70;;;2.70;97.10;;;;;;5066552;28;37495;-48
2022/04/03 05:08:51;;;;;;;6.72;1.52;;;2.70;96.90;;;;;;5066639;28;37614;-45
2022/04/03 05:11:20;;;;;;;3.90;1.83;;;2.60;96.90;;;;;;5066675;28;37421;-50
2022/04/03 05:13:48;;;;;;;7.80;1.60;;;2.60;97.00;;;;;;5066940;28;36745;-50
2022/04/03 05:16:15;;;;;;;5.97;1.95;;;2.60;96.80;;;;;;5067449;28;37345;-48
2022/04/03 05:18:42;;;;;;;4.85;1.58;;;2.60;96.90;;;;;;5066649;28;38589;-48
2022/04/03 05:21:10;;;;;;;4.65;1.60;;;2.60;96.80;;;;;;5067090;28;37157;-45
2022/04/03 05:23:38;;;;;;;3.28;1.40;;;2.60;96.90;;;;;;5067005;28;36462;-49
2022/04/03 05:26:05;;;;;;;3.45;1.58;;;2.60;97.10;;;;;;5066040;28;38102;-49
2022/04/03 05:28:35;;;;;;;4.28;1.70;;;2.60;97.10;;;;;;5067327;28;36481;-46
2022/04/03 05:31:02;;;;;;;6.00;1.52;;;2.70;97.40;;;;;;5066833;28;37796;-50
2022/04/03 05:33:30;;;;;;;4.32;1.60;;;2.70;97.20;;;;;;5065707;28;35269;-47
2022/04/03 05:35:57;;;;;;;5.75;1.60;;;2.80;97.10;;;;;;5066816;28;37576;-46
2022/04/03 05:38:24;;;;;;;6.97;1.52;;;2.80;97.00;;;;;;5066963;28;37792;-46
2022/04/03 05:40:52;;;;;;;4.90;1.65;;;2.70;97.10;;;;;;5066026;28;38722;-53
2022/04/03 05:43:19;;;;;;;3.38;1.30;;;2.80;96.80;;;;;;5065899;28;36463;-53
2022/04/03 05:45:48;;;;;;;3.53;1.45;;;2.80;96.80;;;;;;5068091;28;38261;-53
2022/04/03 05:48:15;;;;;;;3.95;1.67;;;2.80;96.80;;;;;;5069003;28;37714;-52
2022/04/03 05:50:44;;;;;;;3.42;1.40;;;2.80;97.10;;;;;;5070714;28;36968;-53
2022/04/03 05:53:12;;;;;;;7.20;1.55;;;2.80;97.40;;;;;;5070081;28;35364;-53
2022/04/03 05:55:39;;;;;;;4.22;1.50;;;3.00;97.30;;;;;;5069541;28;37655;-54
2022/04/03 05:58:06;;;;;;;4.88;1.70;;;3.30;97.10;;;;;;5070059;28;38781;-51
2022/04/03 06:00:34;;;;;;;4.95;1.58;;;3.30;96.60;;;;;;5067808;28;39060;-54
2022/04/03 06:03:03;;;;;;;4.65;1.50;;;3.30;96.30;;;;;;5069092;28;36610;-53
2022/04/03 06:05:34;;;;;;;7.35;1.67;;;3.30;96.50;;;;;;5069169;28;36545;-54
2022/04/03 06:08:01;;;;;;;5.57;1.40;;;3.30;96.60;;;;;;5069241;28;37662;-53
2022/04/03 06:10:29;;;;;;;3.60;1.40;;;3.40;96.70;;;;;;5069917;28;38192;-53
2022/04/03 06:12:59;;;;;;;6.50;1.27;;;3.50;96.70;;;;;;5069813;28;35285;-54
2022/04/03 06:15:28;;;;;;;6.22;1.30;;;3.50;96.70;;;;;;5069930;28;39061;-51
2022/04/03 06:17:56;;;;;;;9.00;1.60;;;3.50;96.70;;;;;;5069639;28;38250;-52
2022/04/03 06:20:25;;;;;;;3.08;1.00;;;3.50;96.80;;;;;;5069683;28;37403;-51
2022/04/03 06:22:52;;;;;;;3.80;1.17;;;3.60;97.30;;;;;;5069797;28;36410;-53
2022/04/03 06:25:21;;;;;;;5.60;1.70;;;3.60;97.20;;;;;;5068814;28;38998;-52
2022/04/03 06:27:48;;;;;;;4.55;1.23;;;3.80;97.40;;;;;;5069498;28;38763;-53
2022/04/03 06:30:16;;;;;;;6.93;2.17;;;4.20;97.70;;;;;;5069682;28;37034;-52
2022/04/03 06:32:43;;;;;;;10.07;2.08;;;4.50;97.10;;;;;;5067951;28;37410;-54
2022/04/03 06:35:11;;;;;;;9.75;2.67;;;4.70;96.80;;;;;;5069672;28;38562;-53
2022/04/03 06:37:40;;;;;;;8.35;2.10;;;4.70;96.30;;;;;;5068529;28;36434;-53
2022/04/03 06:40:08;;;;;;;6.95;1.92;;;4.90;96.50;;;;;;5069215;28;37469;-53
2022/04/03 06:42:36;;;;;;;7.85;1.50;;;5.20;97.10;;;;;;5068769;28;37182;-54
2022/04/03 06:45:04;;;;;;;3.58;1.05;;;5.50;96.60;;;;;;5069644;28;36322;-53
2022/04/03 06:47:32;;;;;;;5.32;1.45;;;5.80;96.00;;;;;;5068961;28;36398;-53
2022/04/03 06:50:00;;;;;;;3.28;0.95;;;6.00;95.40;;;;;;5069170;28;37660;-54
2022/04/03 06:52:27;;;;;;;5.05;1.20;;;6.20;94.90;;;;;;5068929;28;37293;-53
2022/04/03 06:54:57;;;;;;;5.05;1.08;;;6.40;94.90;;;;;;5068595;28;37315;-53
2022/04/03 06:57:24;;;;;;;5.72;1.20;;;6.60;94.50;;;;;;5067822;28;38660;-53
2022/04/03 06:59:51;;;;;;;2.88;1.08;;;6.80;94.00;;;;;;5069533;28;36321;-54
2022/04/03 07:02:19;;;;;;;5.35;1.65;;;6.90;93.60;;;;;;5069117;28;37968;-49
2022/04/03 07:04:46;;;;;;;5.47;1.15;;;6.90;92.80;;;;;;5069531;28;37375;-47
2022/04/03 07:07:21;;;;;;;3.78;1.20;;;6.90;92.40;;;;;;5068352;28;37150;-46
2022/04/03 07:09:49;;;;;;;4.60;1.10;;;6.90;92.60;;;;;;5068950;28;37104;-49
2022/04/03 07:12:18;;;;;;;5.95;1.23;;;7.00;92.80;;;;;;5069041;28;36067;-48
2022/04/03 07:14:45;;;;;;;8.00;1.83;;;7.30;92.90;;;;;;5067702;28;37432;-48
2022/04/03 07:17:12;;;;;;;5.03;1.38;;;7.50;92.90;;;;;;5069086;28;37548;-47
2022/04/03 07:19:40;;;;;;;5.10;1.83;;;7.70;92.20;;;;;;5069056;28;36529;-49
2022/04/03 07:22:07;;;;;;;6.95;1.90;;;7.70;91.50;;;;;;5068768;28;37195;-48
2022/04/03 07:24:35;;;;;;;5.28;1.30;;;7.70;91.70;;;;;;5068532;28;38295;-47
2022/04/03 07:27:02;;;;;;;4.30;1.15;;;7.70;91.80;;;;;;5068093;28;36470;-50
2022/04/03 07:29:31;;;;;;;5.05;0.90;;;7.60;91.80;;;;;;5068624;28;38480;-46
2022/04/03 07:31:58;;;;;;;5.85;1.73;;;7.50;92.00;;;;;;5067557;28;36257;-45
2022/04/03 07:34:25;;;;;;;3.58;1.00;;;7.30;92.20;;;;;;5069170;28;37595;-50
2022/04/03 07:36:53;;;;;;;3.30;1.15;;;7.30;92.60;;;;;;5068671;28;36435;-49
2022/04/03 07:39:20;;;;;;;6.03;1.20;;;7.60;93.20;;;;;;5068731;28;37754;-46
2022/04/03 07:41:48;;;;;;;3.22;0.93;;;8.30;92.60;;;;;;5068689;28;36198;-48
2022/04/03 07:44:15;;;;;;;5.10;0.90;;;9.00;91.00;;;;;;5068602;28;36326;-47
2022/04/03 07:46:44;;;;;;;3.78;1.00;;;9.50;89.10;;;;;;5067036;28;37340;-50
2022/04/03 07:49:11;;;;;;;4.30;0.68;;;9.70;87.70;;;;;;5066623;28;38040;-47
2022/04/03 07:51:39;;;;;;;4.85;0.98;;;9.90;86.60;;;;;;5066885;28;38417;-48
2022/04/03 07:54:06;;;;;;;5.57;0.90;;;10.20;85.60;;;;;;5066746;28;37267;-48
2022/04/03 07:56:34;;;;;;;5.38;0.88;;;10.40;84.60;;;;;;5067663;28;37628;-51
2022/04/03 07:59:03;;;;;;;2.75;0.65;;;10.40;84.00;;;;;;5068373;28;40102;-48
2022/04/03 08:01:31;;;;;;;3.30;0.88;;;10.30;83.40;;;;;;5068172;28;36857;-49
2022/04/03 08:03:59;;;;;;;6.53;0.80;;;10.40;83.10;;;;;;5068061;28;38074;-49
2022/04/03 08:06:27;;;;;;;7.55;1.52;;;10.40;81.70;;;;;;5068394;28;38928;-46
2022/04/03 08:08:54;;;;;;;5.28;0.90;;;10.50;82.40;;;;;;5067722;28;36106;-49
2022/04/03 08:11:21;;;;;;;5.78;0.90;;;10.60;82.00;;;;;;5068232;28;37975;-47
2022/04/03 08:13:49;;;;;;;4.70;1.30;;;10.70;81.80;;;;;;5067739;28;37584;-48
2022/04/03 08:16:16;;;;;;;2.97;0.73;;;10.80;81.30;;;;;;5067454;28;40481;-47
2022/04/03 08:18:44;;;;;;;5.38;0.88;;;11.00;79.80;;;;;;5067464;28;37389;-49
2022/04/03 08:21:12;;;;;;;3.65;0.95;;;11.20;78.20;;;;;;5068313;28;36557;-50
2022/04/03 08:23:40;;;;;;;9.65;1.95;;;11.60;76.30;;;;;;5067278;28;39001;-47
2022/04/03 08:26:07;;;;;;;5.13;1.35;;;11.80;72.90;;;;;;5068050;28;36137;-50
2022/04/03 08:28:35;;;;;;;5.25;1.25;;;12.10;71.70;;;;;;5067826;28;36835;-50
2022/04/03 08:31:02;;;;;;;3.63;1.08;;;12.20;70.80;;;;;;5066594;28;38057;-49
2022/04/03 08:33:29;;;;;;;6.40;1.20;;;12.10;69.80;;;;;;5067478;28;36263;-49
2022/04/03 08:35:57;;;;;;;6.25;1.30;;;11.80;69.90;;;;;;5067714;28;38733;-50
2022/04/03 08:38:26;;;;;;;4.25;0.75;;;11.30;69.30;;;;;;5066741;28;38817;-50
2022/04/03 08:40:53;;;;;;;2.83;0.65;;;10.80;69.20;;;;;;5065000;28;36022;-47
2022/04/03 08:43:22;;;;;;;2.30;0.70;;;10.30;70.80;;;;;;5065547;28;38178;-46
2022/04/03 08:45:49;;;;;;;5.28;0.80;;;10.50;73.30;;;;;;5065478;28;36630;-48
2022/04/03 08:48:19;;;;;;;5.68;1.17;;;10.70;72.40;;;;;;5065842;28;39186;-50
2022/04/03 08:50:49;;;;;;;5.25;0.88;;;10.60;70.90;;;;;;5065536;28;36720;-50
2022/04/03 08:53:20;;;;;;;4.00;0.80;;;10.30;70.10;;;;;;5065485;28;36306;-48
2022/04/03 08:55:50;;;;;;;1.83;0.70;;;9.90;70.80;;;;;;5064916;28;38025;-47
2022/04/03 08:58:18;;;;;;;1.42;0.43;;;9.70;71.90;;;;;;5065547;28;37300;-48
2022/04/03 09:00:45;;;;;;;6.32;0.90;;;9.70;72.60;;;;;;5065833;28;36598;-49
2022/04/03 09:03:13;;;;;;;5.68;1.35;;;9.90;72.80;;;;;;5064614;28;39219;-49
2022/04/03 09:05:42;;;;;;;1.98;0.60;;;9.90;72.40;;;;;;5065603;28;38449;-47
2022/04/03 09:08:11;;;;;;;4.75;1.27;;;9.90;71.70;;;;;;5066167;28;37390;-48
2022/04/03 09:10:41;;;;;;;7.55;2.90;;;9.80;72.30;;;;;;5065515;28;37890;-46
2022/04/03 09:13:11;;;;;;;3.15;0.80;;;9.80;72.70;;;;;;5063613;28;36366;-49
2022/04/03 09:15:39;;;;;;;6.75;2.25;;;10.20;73.80;;;;;;5065064;28;39839;-47
2022/04/03 09:18:08;;;;;;;2.80;1.15;;;10.30;72.80;;;;;;5064911;28;37336;-49
2022/04/03 09:20:37;;;;;;;7.65;1.60;;;10.00;71.60;;;;;;5067967;28;37526;-48
2022/04/03 09:23:07;;;;;;;4.00;0.80;;;9.90;71.80;;;;;;5069197;28;36483;-49
2022/04/03 09:25:36;;;;;;;6.85;1.13;;;10.20;74.00;;;;;;5068551;28;37787;-50
2022/04/03 09:28:05;;;;;;;4.43;1.00;;;10.60;72.40;;;;;;5069184;28;37661;-51
2022/04/03 09:30:36;;;;;;;5.78;1.25;;;11.10;71.20;;;;;;5060253;28;36530;-50
2022/04/03 09:33:06;;;;;;;6.20;2.60;;;11.40;68.10;;;;;;5063419;28;37633;-51
2022/04/03 09:35:54;;;;;;;4.30;1.10;;;11.90;68.50;;;;;;5064092;28;36409;-49
2022/04/03 09:38:22;;;;;;;7.32;0.90;;;12.20;63.00;;;;;;5059538;28;38746;-47
2022/04/03 09:40:51;;;;;;;4.13;1.00;;;12.00;64.00;;;;;;5064033;28;37032;-47
2022/04/03 09:43:20;;;;;;;5.00;0.80;;;11.60;64.20;;;;;;5064237;28;37518;-48
2022/04/03 09:45:51;;;;;;;9.43;2.70;;;11.60;64.80;;;;;;5064698;28;38260;-49
2022/04/03 09:48:23;;;;;;;7.68;3.05;;;12.00;63.90;;;;;;5064138;28;37508;-49
2022/04/03 09:51:13;;;;;;;4.97;1.45;;;12.50;60.50;;;;;;5064312;28;37626;-47
2022/04/03 09:53:42;;;;;;;6.55;1.40;;;13.20;60.80;;;;;;5062753;28;38058;-48
2022/04/03 09:56:10;;;;;;;3.95;1.27;;;13.40;58.80;;;;;;5064004;28;37279;-48
2022/04/03 09:59:00;;;;;;;6.53;1.95;;;13.00;58.30;;;;;;5064354;28;36896;-49
2022/04/03 10:01:31;;;;;;;8.48;1.88;;;12.40;58.20;;;;;;5059689;28;36645;-48
2022/04/03 10:03:59;;;;;;;6.13;1.33;;;11.90;59.70;;;;;;5062548;28;38581;-48
2022/04/03 10:06:27;;;;;;;12.35;4.38;;;11.80;61.50;;;;;;5062839;28;37700;-49
2022/04/03 10:08:54;;;;;;;5.95;1.23;;;11.90;60.20;;;;;;5059718;28;36372;-47
2022/04/03 10:11:22;;;;;;;5.30;0.80;;;11.70;59.20;;;;;;5062251;28;36668;-47
2022/04/03 10:13:50;;;;;;;3.25;0.90;;;11.40;59.90;;;;;;5062960;28;38841;-48
2022/04/03 10:16:19;;;;;;;3.90;0.80;;;11.50;61.70;;;;;;5063742;28;37728;-49
2022/04/03 10:18:49;;;;;;;1.15;0.35;;;11.90;60.90;;;;;;5064135;28;38762;-47
2022/04/03 10:21:22;;;;;;;3.33;0.57;;;12.20;58.00;;;;;;5064648;28;36583;-48
2022/04/03 10:23:52;;;;;;;5.22;0.80;;;12.10;57.60;;;;;;5064355;28;37712;-49
2022/04/03 10:26:23;;;;;;;4.10;1.13;;;12.60;57.90;;;;;;5064227;28;36598;-49
2022/04/03 10:28:54;;;;;;;1.45;0.60;;;13.00;56.70;;;;;;5063908;28;37460;-47
2022/04/03 10:31:22;;;;;;;5.70;1.30;;;13.20;55.70;;;;;;5062975;28;36445;-46
2022/04/03 10:33:53;;;;;;;3.05;0.80;;;12.80;54.70;;;;;;5064365;28;37427;-49
2022/04/03 10:36:26;;;;;;;4.15;0.90;;;12.30;55.10;;;;;;5062894;28;37560;-48
2022/04/03 10:38:59;;;;;;;3.15;0.88;;;11.90;55.90;;;;;;5063055;28;36196;-47
2022/04/03 10:41:29;;;;;;;12.32;4.22;;;11.60;56.20;;;;;;5063728;28;37097;-51
2022/04/03 10:44:13;;;;;;;32.83;17.90;;;11.50;57.70;;;;;;5062230;28;37723;-49
2022/04/03 10:47:16;;;;;;;17.20;8.18;;;11.20;60.20;;;;;;5062403;28;37605;-48
2022/04/03 10:49:51;;;;;;;9.80;4.72;;;10.80;60.90;;;;;;5063488;28;37106;-49
2022/04/03 10:52:26;;;;;;;8.40;4.18;;;10.40;63.10;;;;;;5063645;28;36677;-49
2022/04/03 10:54:57;;;;;;;11.40;3.80;;;10.20;65.00;;;;;;5061810;28;39464;-50
2022/04/03 10:57:43;;;;;;;10.23;3.80;;;10.10;66.70;;;;;;5062434;28;38104;-50
2022/04/03 11:00:37;;;;;;;5.07;2.20;;;10.10;69.20;;;;;;5061956;28;37142;-50
2022/04/03 11:03:42;;;;;;;7.50;2.83;;;10.40;68.70;;;;;;5057716;28;36254;-50
2022/04/03 11:06:36;;;;;;;11.30;2.90;;;10.50;66.10;;;;;;5053407;28;38228;-47
2022/04/03 11:09:12;;;;;;;4.57;1.60;;;10.40;66.70;;;;;;5055377;28;36677;-47
2022/04/03 11:11:55;;;;;;;6.13;2.17;;;10.20;66.20;;;;;;5062721;28;37511;-50
2022/04/03 11:14:55;;;;;;;2.13;0.80;;;10.20;66.60;;;;;;5060696;28;36495;-50
2022/04/03 11:17:52;;;;;;;2.88;0.70;;;10.10;67.00;;;;;;5062244;28;37412;-47
2022/04/03 11:20:39;;;;;;;1.30;0.63;;;10.10;67.30;;;;;;5061144;28;36417;-49
2022/04/03 11:23:11;;;;;;;1.85;0.73;;;10.00;68.30;;;;;;5062371;28;37946;-48
2022/04/03 11:25:39;;;;;;;3.20;1.30;;;9.70;69.70;;;;;;5061451;28;36407;-48
2022/04/03 11:28:08;;;;;;;5.90;1.63;;;9.60;71.40;;;;;;5060452;28;37621;-48
2022/04/03 11:30:36;;;;;;;6.10;1.83;;;9.40;73.40;;;;;;5061046;28;38305;-48
2022/04/03 11:33:04;;;;;;;5.20;1.27;;;9.40;74.50;;;;;;5061274;28;37605;-49
2022/04/03 11:35:35;;;;;;;2.92;1.38;;;9.40;74.30;;;;;;5063146;28;35280;-48
2022/04/03 11:38:03;;;;;;;3.22;1.38;;;9.40;73.00;;;;;;5062499;28;36216;-51
2022/04/03 11:40:34;;;;;;;3.33;0.80;;;9.20;71.60;;;;;;5062359;28;37880;-49
2022/04/03 11:43:09;;;;;;;2.95;1.40;;;9.00;70.30;;;;;;5059275;28;38695;-49
2022/04/03 11:45:36;;;;;;;2.15;1.33;;;8.80;71.40;;;;;;5061889;28;37196;-47
2022/04/03 11:48:17;;;;;;;3.50;1.65;;;8.50;71.30;;;;;;5062918;28;37477;-48
2022/04/03 11:50:45;;;;;;;2.00;0.77;;;8.40;73.30;;;;;;5060825;28;37714;-47
2022/04/03 11:53:12;;;;;;;9.40;5.40;;;8.30;74.40;;;;;;5060687;28;37181;-47
2022/04/03 11:55:41;;;;;;;9.60;3.67;;;8.20;74.50;;;;;;5061810;28;37013;-48
2022/04/03 11:58:09;;;;;;;8.18;4.35;;;8.20;74.80;;;;;;5062021;28;38130;-49
2022/04/03 12:00:46;;;;;;;5.13;1.45;;;8.10;76.20;;;;;;5060465;28;38151;-46
2022/04/03 12:03:13;;;;;;;7.97;3.75;;;8.20;77.10;;;;;;5060457;28;39417;-48
2022/04/03 12:05:42;;;;;;;1.92;0.63;;;8.40;77.10;;;;;;5060588;28;39450;-46
2022/04/03 12:08:09;;;;;;;1.48;0.43;;;8.40;77.60;;;;;;5061875;28;37286;-46
2022/04/03 12:10:36;;;;;;;3.05;0.77;;;8.50;78.50;;;;;;5062020;28;38216;-48
2022/04/03 12:13:07;;;;;;;2.28;0.40;;;8.40;78.60;;;;;;5063228;28;38913;-48
2022/04/03 12:15:39;;;;;;;4.90;0.70;;;8.40;79.40;;;;;;5060623;28;35329;-51
2022/04/03 12:18:08;;;;;;;4.40;1.88;;;8.40;80.20;;;;;;5061706;28;38573;-46
2022/04/03 12:20:36;;;;;;;2.40;0.60;;;8.60;82.30;;;;;;5062005;28;37942;-47
2022/04/03 12:23:09;;;;;;;2.58;0.47;;;9.10;83.80;;;;;;5061445;28;36233;-48
2022/04/03 12:25:36;;;;;;;2.15;0.50;;;9.50;83.70;;;;;;5062598;28;36588;-47
2022/04/03 12:28:04;;;;;;;1.17;0.43;;;9.80;80.30;;;;;;5062008;28;38144;-49
2022/04/03 12:30:33;;;;;;;0.85;0.52;;;10.00;78.20;;;;;;5063241;28;37207;-50
2022/04/03 12:33:00;;;;;;;3.15;0.52;;;10.10;76.70;;;;;;5060734;28;37576;-50
2022/04/03 12:35:29;;;;;;;2.90;0.77;;;9.90;75.10;;;;;;5061559;28;36455;-47
2022/04/03 12:37:57;;;;;;;2.28;0.65;;;9.80;75.10;;;;;;5062661;28;38503;-50
2022/04/03 12:40:25;;;;;;;3.08;0.70;;;9.60;75.60;;;;;;5059716;28;39143;-47
2022/04/03 12:43:02;;;;;;;1.67;0.63;;;9.60;76.20;;;;;;5060278;28;37454;-51
2022/04/03 12:45:30;;;;;;;7.57;1.30;;;9.50;76.80;;;;;;5060940;28;37829;-48
2022/04/03 12:48:03;;;;;;;5.10;1.10;;;9.40;77.00;;;;;;5059255;28;39219;-49
2022/04/03 12:50:38;;;;;;;4.25;1.30;;;9.40;76.50;;;;;;5060749;28;41674;-49
2022/04/03 12:53:08;;;;;;;7.25;2.28;;;9.30;76.90;;;;;;5060208;28;37959;-49
2022/04/03 12:55:38;;;;;;;6.65;1.30;;;9.30;77.60;;;;;;5062823;28;36706;-48
2022/04/03 12:58:33;;;;;;;7.65;1.23;;;9.20;77.30;;;;;;5064903;28;38527;-48
2022/04/03 13:01:09;;;;;;;2.28;1.00;;;9.20;77.00;;;;;;5065716;28;37911;-47
2022/04/03 13:03:41;;;;;;;1.70;0.57;;;9.30;77.20;;;;;;5064310;28;40274;-46